sensor_id;sensor_type;location;lat;lon;timestamp;temperature;humidity
30678;DHT22;17437;47.188;8.896;2023-02-28T00:00:47;0.40;99.90
30678;DHT22;17437;47.188;8.896;2023-02-28T00:03:19;0.40;99.90
30678;DHT22;17437;47.188;8.896;2023-02-28T00:05:51;0.40;99.90
30678;DHT22;17437;47.188;8.896;2023-02-28T00:08:22;0.40;99.90
30678;DHT22;17437;47.188;8.896;2023-02-28T00:10:54;0.40;99.90
30678;DHT22;17437;47.188;8.896;2023-02-28T00:13:25;0.40;99.90
30678;DHT22;17437;47.188;8.896;2023-02-28T00:16:01;0.40;99.90
30678;DHT22;17437;47.188;8.896;2023-02-28T00:18:33;0.40;99.90
30678;DHT22;17437;47.188;8.896;2023-02-28T00:21:05;0.40;99.90
30678;DHT22;17437;47.188;8.896;2023-02-28T00:23:37;0.30;99.90
30678;DHT22;17437;47.188;8.896;2023-02-28T00:26:08;0.30;99.90
30678;DHT22;17437;47.188;8.896;2023-02-28T00:28:40;0.30;99.90
30678;DHT22;17437;47.188;8.896;2023-02-28T00:31:12;0.30;99.90
30678;DHT22;17437;47.188;8.896;2023-02-28T00:33:43;0.30;99.90
30678;DHT22;17437;47.188;8.896;2023-02-28T00:36:15;0.40;99.90
30678;DHT22;17437;47.188;8.896;2023-02-28T00:38:47;0.40;99.90
30678;DHT22;17437;47.188;8.896;2023-02-28T00:41:18;0.30;99.90
30678;DHT22;17437;47.188;8.896;2023-02-28T00:43:50;0.40;99.90
30678;DHT22;17437;47.188;8.896;2023-02-28T00:46:21;0.40;99.90
30678;DHT22;17437;47.188;8.896;2023-02-28T00:48:53;0.40;99.90
30678;DHT22;17437;47.188;8.896;2023-02-28T00:51:24;0.30;99.90
30678;DHT22;17437;47.188;8.896;2023-02-28T00:53:56;0.30;99.90
30678;DHT22;17437;47.188;8.896;2023-02-28T00:56:28;0.30;99.90
30678;DHT22;17437;47.188;8.896;2023-02-28T00:59:00;0.30;99.90
30678;DHT22;17437;47.188;8.896;2023-02-28T01:01:31;0.20;99.90
30678;DHT22;17437;47.188;8.896;2023-02-28T01:04:04;0.20;99.90
30678;DHT22;17437;47.188;8.896;2023-02-28T01:06:35;0.20;99.90
30678;DHT22;17437;47.188;8.896;2023-02-28T01:09:08;0.20;99.90
30678;DHT22;17437;47.188;8.896;2023-02-28T01:11:39;0.20;99.90
30678;DHT22;17437;47.188;8.896;2023-02-28T01:14:15;0.20;99.90
30678;DHT22;17437;47.188;8.896;2023-02-28T01:16:47;0.20;99.90
30678;DHT22;17437;47.188;8.896;2023-02-28T01:19:19;0.20;99.90
30678;DHT22;17437;47.188;8.896;2023-02-28T01:21:50;0.20;99.90
30678;DHT22;17437;47.188;8.896;2023-02-28T01:24:22;0.20;99.90
30678;DHT22;17437;47.188;8.896;2023-02-28T01:26:54;0.20;99.90
30678;DHT22;17437;47.188;8.896;2023-02-28T01:29:25;0.30;99.90
30678;DHT22;17437;47.188;8.896;2023-02-28T01:31:57;0.30;99.90
30678;DHT22;17437;47.188;8.896;2023-02-28T01:34:29;0.30;99.90
30678;DHT22;17437;47.188;8.896;2023-02-28T01:37:01;0.30;99.90
30678;DHT22;17437;47.188;8.896;2023-02-28T01:39:33;0.30;99.90
30678;DHT22;17437;47.188;8.896;2023-02-28T01:42:05;0.30;99.90
30678;DHT22;17437;47.188;8.896;2023-02-28T01:44:59;0.30;99.90
30678;DHT22;17437;47.188;8.896;2023-02-28T01:47:34;0.30;99.90
30678;DHT22;17437;47.188;8.896;2023-02-28T01:50:09;0.30;99.90
30678;DHT22;17437;47.188;8.896;2023-02-28T01:52:42;0.30;99.90
30678;DHT22;17437;47.188;8.896;2023-02-28T01:55:15;0.30;99.90
30678;DHT22;17437;47.188;8.896;2023-02-28T01:57:50;0.30;99.90
30678;DHT22;17437;47.188;8.896;2023-02-28T02:00:25;0.30;99.90
30678;DHT22;17437;47.188;8.896;2023-02-28T02:02:59;0.30;99.90
30678;DHT22;17437;47.188;8.896;2023-02-28T02:05:32;0.30;99.90
30678;DHT22;17437;47.188;8.896;2023-02-28T02:08:06;0.30;99.90
30678;DHT22;17437;47.188;8.896;2023-02-28T02:10:42;0.30;99.90
30678;DHT22;17437;47.188;8.896;2023-02-28T02:16:54;0.40;99.90
30678;DHT22;17437;47.188;8.896;2023-02-28T02:19:44;0.40;99.90
30678;DHT22;17437;47.188;8.896;2023-02-28T02:22:33;0.50;99.90
30678;DHT22;17437;47.188;8.896;2023-02-28T02:25:15;0.40;99.90
30678;DHT22;17437;47.188;8.896;2023-02-28T02:36:56;0.40;99.90
30678;DHT22;17437;47.188;8.896;2023-02-28T02:39:31;0.40;99.90
30678;DHT22;17437;47.188;8.896;2023-02-28T02:42:05;0.40;99.90
30678;DHT22;17437;47.188;8.896;2023-02-28T02:44:40;0.40;99.90
30678;DHT22;17437;47.188;8.896;2023-02-28T02:47:15;0.40;99.90
30678;DHT22;17437;47.188;8.896;2023-02-28T02:49:50;0.40;99.90
30678;DHT22;17437;47.188;8.896;2023-02-28T02:52:27;0.50;99.90
30678;DHT22;17437;47.188;8.896;2023-02-28T02:54:59;0.50;99.90
30678;DHT22;17437;47.188;8.896;2023-02-28T02:57:33;0.40;99.90
30678;DHT22;17437;47.188;8.896;2023-02-28T03:00:09;0.40;99.90
30678;DHT22;17437;47.188;8.896;2023-02-28T03:02:42;0.40;99.90
30678;DHT22;17437;47.188;8.896;2023-02-28T03:05:17;0.30;99.90
30678;DHT22;17437;47.188;8.896;2023-02-28T03:07:48;0.30;99.90
30678;DHT22;17437;47.188;8.896;2023-02-28T03:10:39;0.30;99.90
30678;DHT22;17437;47.188;8.896;2023-02-28T03:19:13;0.20;99.90
30678;DHT22;17437;47.188;8.896;2023-02-28T03:21:49;0.20;99.90
30678;DHT22;17437;47.188;8.896;2023-02-28T03:24:22;0.20;99.90
30678;DHT22;17437;47.188;8.896;2023-02-28T03:26:57;0.10;99.90
30678;DHT22;17437;47.188;8.896;2023-02-28T03:29:32;0.20;99.90
30678;DHT22;17437;47.188;8.896;2023-02-28T03:32:08;0.20;99.90
30678;DHT22;17437;47.188;8.896;2023-02-28T03:34:46;0.10;99.90
30678;DHT22;17437;47.188;8.896;2023-02-28T03:37:20;0.20;99.90
30678;DHT22;17437;47.188;8.896;2023-02-28T03:39:55;0.10;99.90
30678;DHT22;17437;47.188;8.896;2023-02-28T03:42:29;0.20;99.90
30678;DHT22;17437;47.188;8.896;2023-02-28T03:45:04;0.10;99.90
30678;DHT22;17437;47.188;8.896;2023-02-28T03:47:40;0.20;99.90
30678;DHT22;17437;47.188;8.896;2023-02-28T03:50:16;0.10;99.90
30678;DHT22;17437;47.188;8.896;2023-02-28T03:52:50;0.10;99.90
30678;DHT22;17437;47.188;8.896;2023-02-28T03:55:22;0.10;99.90
30678;DHT22;17437;47.188;8.896;2023-02-28T03:57:58;0.10;99.90
30678;DHT22;17437;47.188;8.896;2023-02-28T04:00:31;0.20;99.90
30678;DHT22;17437;47.188;8.896;2023-02-28T04:05:53;0.20;99.90
30678;DHT22;17437;47.188;8.896;2023-02-28T04:08:25;0.20;99.90
30678;DHT22;17437;47.188;8.896;2023-02-28T04:10:59;0.20;99.90
30678;DHT22;17437;47.188;8.896;2023-02-28T04:13:31;0.20;99.90
30678;DHT22;17437;47.188;8.896;2023-02-28T04:16:07;0.20;99.90
30678;DHT22;17437;47.188;8.896;2023-02-28T04:18:43;0.20;99.90
30678;DHT22;17437;47.188;8.896;2023-02-28T04:21:14;0.10;99.90
30678;DHT22;17437;47.188;8.896;2023-02-28T04:23:48;0.20;99.90
30678;DHT22;17437;47.188;8.896;2023-02-28T04:26:19;0.20;99.90
30678;DHT22;17437;47.188;8.896;2023-02-28T04:28:51;0.20;99.90
30678;DHT22;17437;47.188;8.896;2023-02-28T04:31:22;0.10;99.90
30678;DHT22;17437;47.188;8.896;2023-02-28T04:33:54;0.10;99.90
30678;DHT22;17437;47.188;8.896;2023-02-28T04:36:26;0.20;99.90
30678;DHT22;17437;47.188;8.896;2023-02-28T04:38:58;0.20;99.90
30678;DHT22;17437;47.188;8.896;2023-02-28T04:41:30;0.20;99.90
30678;DHT22;17437;47.188;8.896;2023-02-28T04:44:02;0.30;99.90
30678;DHT22;17437;47.188;8.896;2023-02-28T04:46:34;0.30;99.90
30678;DHT22;17437;47.188;8.896;2023-02-28T04:49:06;0.30;99.90
30678;DHT22;17437;47.188;8.896;2023-02-28T04:51:37;0.30;99.90
30678;DHT22;17437;47.188;8.896;2023-02-28T04:54:09;0.30;99.90
30678;DHT22;17437;47.188;8.896;2023-02-28T04:56:40;0.30;99.90
30678;DHT22;17437;47.188;8.896;2023-02-28T04:59:12;0.30;99.90
30678;DHT22;17437;47.188;8.896;2023-02-28T05:01:46;0.30;99.90
30678;DHT22;17437;47.188;8.896;2023-02-28T05:04:18;0.30;99.90
30678;DHT22;17437;47.188;8.896;2023-02-28T05:06:49;0.20;99.90
30678;DHT22;17437;47.188;8.896;2023-02-28T05:09:21;0.20;99.90
30678;DHT22;17437;47.188;8.896;2023-02-28T05:11:53;0.20;99.90
30678;DHT22;17437;47.188;8.896;2023-02-28T05:14:24;0.20;99.90
30678;DHT22;17437;47.188;8.896;2023-02-28T05:17:00;0.10;99.90
30678;DHT22;17437;47.188;8.896;2023-02-28T05:19:32;0.10;99.90
30678;DHT22;17437;47.188;8.896;2023-02-28T05:22:04;0.20;99.90
30678;DHT22;17437;47.188;8.896;2023-02-28T05:24:38;0.20;99.90
30678;DHT22;17437;47.188;8.896;2023-02-28T05:27:13;0.30;99.90
30678;DHT22;17437;47.188;8.896;2023-02-28T05:29:44;0.30;99.90
30678;DHT22;17437;47.188;8.896;2023-02-28T05:32:16;0.30;99.90
30678;DHT22;17437;47.188;8.896;2023-02-28T05:34:48;0.30;99.90
30678;DHT22;17437;47.188;8.896;2023-02-28T05:37:19;0.20;99.90
30678;DHT22;17437;47.188;8.896;2023-02-28T05:39:52;0.30;99.90
30678;DHT22;17437;47.188;8.896;2023-02-28T05:42:23;0.30;99.90
30678;DHT22;17437;47.188;8.896;2023-02-28T05:44:55;0.30;99.90
30678;DHT22;17437;47.188;8.896;2023-02-28T05:47:27;0.30;99.90
30678;DHT22;17437;47.188;8.896;2023-02-28T05:49:58;0.30;99.90
30678;DHT22;17437;47.188;8.896;2023-02-28T05:52:31;0.30;99.90
30678;DHT22;17437;47.188;8.896;2023-02-28T05:55:05;0.30;99.90
30678;DHT22;17437;47.188;8.896;2023-02-28T05:57:36;0.30;99.90
30678;DHT22;17437;47.188;8.896;2023-02-28T06:00:10;0.30;99.90
30678;DHT22;17437;47.188;8.896;2023-02-28T06:02:42;0.30;99.90
30678;DHT22;17437;47.188;8.896;2023-02-28T06:05:15;0.30;99.90
30678;DHT22;17437;47.188;8.896;2023-02-28T06:07:47;0.30;99.90
30678;DHT22;17437;47.188;8.896;2023-02-28T06:10:19;0.30;99.90
30678;DHT22;17437;47.188;8.896;2023-02-28T06:12:50;0.40;99.90
30678;DHT22;17437;47.188;8.896;2023-02-28T06:15:22;0.40;99.90
30678;DHT22;17437;47.188;8.896;2023-02-28T06:17:54;0.30;99.90
30678;DHT22;17437;47.188;8.896;2023-02-28T06:20:27;0.30;99.90
30678;DHT22;17437;47.188;8.896;2023-02-28T06:23:00;0.40;99.90
30678;DHT22;17437;47.188;8.896;2023-02-28T06:25:31;0.30;99.90
30678;DHT22;17437;47.188;8.896;2023-02-28T06:28:03;0.30;99.90
30678;DHT22;17437;47.188;8.896;2023-02-28T06:30:35;0.30;99.90
30678;DHT22;17437;47.188;8.896;2023-02-28T06:33:07;0.40;99.90
30678;DHT22;17437;47.188;8.896;2023-02-28T06:35:39;0.40;99.90
30678;DHT22;17437;47.188;8.896;2023-02-28T06:38:10;0.40;99.90
30678;DHT22;17437;47.188;8.896;2023-02-28T06:40:42;0.30;99.90
30678;DHT22;17437;47.188;8.896;2023-02-28T06:43:14;0.30;99.90
30678;DHT22;17437;47.188;8.896;2023-02-28T06:45:45;0.30;99.90
30678;DHT22;17437;47.188;8.896;2023-02-28T06:48:17;0.30;99.90
30678;DHT22;17437;47.188;8.896;2023-02-28T06:50:49;0.40;99.90
30678;DHT22;17437;47.188;8.896;2023-02-28T06:53:20;0.40;99.90
30678;DHT22;17437;47.188;8.896;2023-02-28T06:55:52;0.40;99.90
30678;DHT22;17437;47.188;8.896;2023-02-28T06:58:24;0.40;99.90
30678;DHT22;17437;47.188;8.896;2023-02-28T07:00:55;0.40;99.90
30678;DHT22;17437;47.188;8.896;2023-02-28T07:03:27;0.40;99.90
30678;DHT22;17437;47.188;8.896;2023-02-28T07:05:59;0.40;99.90
30678;DHT22;17437;47.188;8.896;2023-02-28T07:08:31;0.50;99.90
30678;DHT22;17437;47.188;8.896;2023-02-28T07:11:03;0.40;99.90
30678;DHT22;17437;47.188;8.896;2023-02-28T07:13:35;0.50;99.90
30678;DHT22;17437;47.188;8.896;2023-02-28T07:16:09;0.50;99.90
30678;DHT22;17437;47.188;8.896;2023-02-28T07:18:42;0.50;99.90
30678;DHT22;17437;47.188;8.896;2023-02-28T07:21:14;0.50;99.90
30678;DHT22;17437;47.188;8.896;2023-02-28T07:23:46;0.50;99.90
30678;DHT22;17437;47.188;8.896;2023-02-28T07:26:19;0.50;99.90
30678;DHT22;17437;47.188;8.896;2023-02-28T07:28:51;0.50;99.90
30678;DHT22;17437;47.188;8.896;2023-02-28T07:31:23;0.50;99.90
30678;DHT22;17437;47.188;8.896;2023-02-28T07:33:54;0.60;99.90
30678;DHT22;17437;47.188;8.896;2023-02-28T07:36:26;0.60;99.90
30678;DHT22;17437;47.188;8.896;2023-02-28T07:38:59;0.60;99.90
30678;DHT22;17437;47.188;8.896;2023-02-28T07:41:31;0.60;99.90
30678;DHT22;17437;47.188;8.896;2023-02-28T07:44:04;0.60;99.90
30678;DHT22;17437;47.188;8.896;2023-02-28T07:46:36;0.70;99.90
30678;DHT22;17437;47.188;8.896;2023-02-28T07:49:07;0.80;99.90
30678;DHT22;17437;47.188;8.896;2023-02-28T07:51:39;0.90;99.90
30678;DHT22;17437;47.188;8.896;2023-02-28T07:54:10;0.90;99.90
30678;DHT22;17437;47.188;8.896;2023-02-28T07:56:42;1.00;99.90
30678;DHT22;17437;47.188;8.896;2023-02-28T07:59:13;1.00;99.90
30678;DHT22;17437;47.188;8.896;2023-02-28T08:01:45;1.00;99.90
30678;DHT22;17437;47.188;8.896;2023-02-28T08:04:17;1.20;99.90
30678;DHT22;17437;47.188;8.896;2023-02-28T08:06:48;1.20;99.90
30678;DHT22;17437;47.188;8.896;2023-02-28T08:09:21;1.10;99.90
30678;DHT22;17437;47.188;8.896;2023-02-28T08:11:53;1.10;99.90
30678;DHT22;17437;47.188;8.896;2023-02-28T08:14:24;1.10;99.90
30678;DHT22;17437;47.188;8.896;2023-02-28T08:16:56;1.10;99.90
30678;DHT22;17437;47.188;8.896;2023-02-28T08:19:27;1.20;99.90
30678;DHT22;17437;47.188;8.896;2023-02-28T08:22:00;1.20;99.90
30678;DHT22;17437;47.188;8.896;2023-02-28T08:24:31;1.30;99.90
30678;DHT22;17437;47.188;8.896;2023-02-28T08:27:03;1.40;99.90
30678;DHT22;17437;47.188;8.896;2023-02-28T08:29:36;1.40;99.90
30678;DHT22;17437;47.188;8.896;2023-02-28T08:32:08;1.50;99.90
30678;DHT22;17437;47.188;8.896;2023-02-28T08:34:41;1.50;99.90
30678;DHT22;17437;47.188;8.896;2023-02-28T08:37:14;1.50;99.90
30678;DHT22;17437;47.188;8.896;2023-02-28T08:39:45;1.70;99.90
30678;DHT22;17437;47.188;8.896;2023-02-28T08:42:17;1.70;99.90
30678;DHT22;17437;47.188;8.896;2023-02-28T08:44:49;1.70;99.90
30678;DHT22;17437;47.188;8.896;2023-02-28T08:47:20;1.70;99.90
30678;DHT22;17437;47.188;8.896;2023-02-28T08:49:52;1.80;99.90
30678;DHT22;17437;47.188;8.896;2023-02-28T08:52:23;1.80;99.90
30678;DHT22;17437;47.188;8.896;2023-02-28T08:54:55;1.90;99.90
30678;DHT22;17437;47.188;8.896;2023-02-28T08:57:26;2.00;99.90
30678;DHT22;17437;47.188;8.896;2023-02-28T08:59:58;2.00;99.90
30678;DHT22;17437;47.188;8.896;2023-02-28T09:02:31;2.00;99.90
30678;DHT22;17437;47.188;8.896;2023-02-28T09:05:03;2.10;99.90
30678;DHT22;17437;47.188;8.896;2023-02-28T09:07:34;2.20;99.90
30678;DHT22;17437;47.188;8.896;2023-02-28T09:10:07;2.10;99.90
30678;DHT22;17437;47.188;8.896;2023-02-28T09:12:39;2.20;99.90
30678;DHT22;17437;47.188;8.896;2023-02-28T09:15:11;2.20;99.90
30678;DHT22;17437;47.188;8.896;2023-02-28T09:17:43;2.20;99.90
30678;DHT22;17437;47.188;8.896;2023-02-28T09:20:17;2.30;99.90
30678;DHT22;17437;47.188;8.896;2023-02-28T09:22:48;2.30;99.90
30678;DHT22;17437;47.188;8.896;2023-02-28T09:25:20;2.20;99.90
30678;DHT22;17437;47.188;8.896;2023-02-28T09:27:52;2.20;99.90
30678;DHT22;17437;47.188;8.896;2023-02-28T09:30:24;2.10;99.90
30678;DHT22;17437;47.188;8.896;2023-02-28T09:32:55;2.10;99.90
30678;DHT22;17437;47.188;8.896;2023-02-28T09:35:31;2.20;99.90
30678;DHT22;17437;47.188;8.896;2023-02-28T09:38:05;2.20;99.90
30678;DHT22;17437;47.188;8.896;2023-02-28T09:40:47;2.20;99.90
30678;DHT22;17437;47.188;8.896;2023-02-28T09:43:16;2.30;99.90
30678;DHT22;17437;47.188;8.896;2023-02-28T09:45:51;2.30;99.90
30678;DHT22;17437;47.188;8.896;2023-02-28T09:48:28;2.40;99.90
30678;DHT22;17437;47.188;8.896;2023-02-28T09:51:03;2.50;99.90
30678;DHT22;17437;47.188;8.896;2023-02-28T09:53:36;2.70;99.90
30678;DHT22;17437;47.188;8.896;2023-02-28T09:56:12;2.90;99.90
30678;DHT22;17437;47.188;8.896;2023-02-28T09:58:46;2.90;99.90
30678;DHT22;17437;47.188;8.896;2023-02-28T10:01:23;2.90;99.90
30678;DHT22;17437;47.188;8.896;2023-02-28T10:03:57;3.00;99.90
30678;DHT22;17437;47.188;8.896;2023-02-28T10:06:32;3.10;99.90
30678;DHT22;17437;47.188;8.896;2023-02-28T10:09:05;3.20;99.90
30678;DHT22;17437;47.188;8.896;2023-02-28T10:11:40;3.20;99.90
30678;DHT22;17437;47.188;8.896;2023-02-28T10:14:15;3.30;99.90
30678;DHT22;17437;47.188;8.896;2023-02-28T10:16:48;3.20;99.90
30678;DHT22;17437;47.188;8.896;2023-02-28T10:19:27;3.40;99.90
30678;DHT22;17437;47.188;8.896;2023-02-28T10:22:04;3.80;99.90
30678;DHT22;17437;47.188;8.896;2023-02-28T10:24:39;3.90;99.90
30678;DHT22;17437;47.188;8.896;2023-02-28T10:27:15;4.00;99.90
30678;DHT22;17437;47.188;8.896;2023-02-28T10:29:50;4.20;99.90
30678;DHT22;17437;47.188;8.896;2023-02-28T10:32:28;4.20;99.90
30678;DHT22;17437;47.188;8.896;2023-02-28T10:35:06;4.20;99.90
30678;DHT22;17437;47.188;8.896;2023-02-28T10:37:37;4.50;99.90
30678;DHT22;17437;47.188;8.896;2023-02-28T10:40:26;4.70;99.90
30678;DHT22;17437;47.188;8.896;2023-02-28T10:42:59;4.90;99.90
30678;DHT22;17437;47.188;8.896;2023-02-28T10:45:32;4.50;99.90
30678;DHT22;17437;47.188;8.896;2023-02-28T10:48:23;4.30;99.90
30678;DHT22;17437;47.188;8.896;2023-02-28T10:50:43;4.00;99.90
30678;DHT22;17437;47.188;8.896;2023-02-28T10:53:31;3.90;99.90
30678;DHT22;17437;47.188;8.896;2023-02-28T10:56:13;3.90;99.90
30678;DHT22;17437;47.188;8.896;2023-02-28T10:58:47;4.10;99.90
30678;DHT22;17437;47.188;8.896;2023-02-28T11:01:20;4.30;99.90
30678;DHT22;17437;47.188;8.896;2023-02-28T11:03:53;4.70;99.90
30678;DHT22;17437;47.188;8.896;2023-02-28T11:06:26;4.60;99.90
30678;DHT22;17437;47.188;8.896;2023-02-28T11:09:01;4.50;99.90
30678;DHT22;17437;47.188;8.896;2023-02-28T11:11:41;4.80;99.90
30678;DHT22;17437;47.188;8.896;2023-02-28T11:14:18;5.20;99.90
30678;DHT22;17437;47.188;8.896;2023-02-28T11:16:52;5.40;99.90
30678;DHT22;17437;47.188;8.896;2023-02-28T11:19:26;5.40;99.90
30678;DHT22;17437;47.188;8.896;2023-02-28T11:22:02;5.60;99.90
30678;DHT22;17437;47.188;8.896;2023-02-28T11:24:41;5.20;99.90
30678;DHT22;17437;47.188;8.896;2023-02-28T11:27:33;4.80;99.90
30678;DHT22;17437;47.188;8.896;2023-02-28T11:30:00;4.50;99.90
30678;DHT22;17437;47.188;8.896;2023-02-28T11:32:32;4.80;99.90
30678;DHT22;17437;47.188;8.896;2023-02-28T11:35:17;5.10;99.90
30678;DHT22;17437;47.188;8.896;2023-02-28T11:37:48;4.90;99.90
30678;DHT22;17437;47.188;8.896;2023-02-28T11:40:23;4.80;99.90
30678;DHT22;17437;47.188;8.896;2023-02-28T11:43:01;4.60;99.90
30678;DHT22;17437;47.188;8.896;2023-02-28T11:46:13;4.70;99.90
30678;DHT22;17437;47.188;8.896;2023-02-28T11:48:49;4.70;99.90
30678;DHT22;17437;47.188;8.896;2023-02-28T11:51:27;4.70;99.90
30678;DHT22;17437;47.188;8.896;2023-02-28T11:54:08;4.80;99.90
30678;DHT22;17437;47.188;8.896;2023-02-28T11:56:43;4.70;99.90
30678;DHT22;17437;47.188;8.896;2023-02-28T11:59:37;4.60;99.90
30678;DHT22;17437;47.188;8.896;2023-02-28T12:08:03;4.40;99.90
30678;DHT22;17437;47.188;8.896;2023-02-28T12:10:51;4.30;99.90
30678;DHT22;17437;47.188;8.896;2023-02-28T12:13:18;4.30;99.90
30678;DHT22;17437;47.188;8.896;2023-02-28T12:16:04;4.30;99.90
30678;DHT22;17437;47.188;8.896;2023-02-28T12:18:47;4.60;99.90
30678;DHT22;17437;47.188;8.896;2023-02-28T12:21:23;4.70;99.90
30678;DHT22;17437;47.188;8.896;2023-02-28T12:24:08;4.60;99.90
30678;DHT22;17437;47.188;8.896;2023-02-28T12:26:42;4.60;99.90
30678;DHT22;17437;47.188;8.896;2023-02-28T12:29:16;4.70;99.90
30678;DHT22;17437;47.188;8.896;2023-02-28T12:31:51;4.70;99.90
30678;DHT22;17437;47.188;8.896;2023-02-28T12:34:27;4.60;99.90
30678;DHT22;17437;47.188;8.896;2023-02-28T12:37:13;4.50;99.90
30678;DHT22;17437;47.188;8.896;2023-02-28T12:39:46;4.60;99.90
30678;DHT22;17437;47.188;8.896;2023-02-28T12:42:24;4.60;99.90
30678;DHT22;17437;47.188;8.896;2023-02-28T12:44:58;4.50;99.90
30678;DHT22;17437;47.188;8.896;2023-02-28T12:47:30;4.50;99.90
30678;DHT22;17437;47.188;8.896;2023-02-28T12:50:04;4.50;99.90
30678;DHT22;17437;47.188;8.896;2023-02-28T12:52:40;4.50;99.90
30678;DHT22;17437;47.188;8.896;2023-02-28T12:55:17;4.50;99.90
30678;DHT22;17437;47.188;8.896;2023-02-28T12:57:53;4.40;99.90
30678;DHT22;17437;47.188;8.896;2023-02-28T13:00:46;4.50;99.90
30678;DHT22;17437;47.188;8.896;2023-02-28T13:03:31;4.80;99.90
30678;DHT22;17437;47.188;8.896;2023-02-28T13:06:23;4.90;99.90
30678;DHT22;17437;47.188;8.896;2023-02-28T13:09:04;4.80;99.90
30678;DHT22;17437;47.188;8.896;2023-02-28T13:11:41;4.60;99.90
30678;DHT22;17437;47.188;8.896;2023-02-28T13:14:24;4.60;99.90
30678;DHT22;17437;47.188;8.896;2023-02-28T13:17:02;4.50;99.90
30678;DHT22;17437;47.188;8.896;2023-02-28T13:19:36;4.30;99.90
30678;DHT22;17437;47.188;8.896;2023-02-28T13:22:19;4.30;99.90
30678;DHT22;17437;47.188;8.896;2023-02-28T13:24:52;4.30;99.90
30678;DHT22;17437;47.188;8.896;2023-02-28T13:27:35;4.20;99.90
30678;DHT22;17437;47.188;8.896;2023-02-28T13:33:27;4.20;99.90
30678;DHT22;17437;47.188;8.896;2023-02-28T13:36:23;4.30;99.90
30678;DHT22;17437;47.188;8.896;2023-02-28T13:38:55;4.40;99.90
30678;DHT22;17437;47.188;8.896;2023-02-28T13:42:05;4.20;99.90
30678;DHT22;17437;47.188;8.896;2023-02-28T13:47:51;4.20;99.90
30678;DHT22;17437;47.188;8.896;2023-02-28T13:50:28;4.30;99.90
30678;DHT22;17437;47.188;8.896;2023-02-28T13:56:27;4.20;99.90
30678;DHT22;17437;47.188;8.896;2023-02-28T13:59:04;4.20;99.90
30678;DHT22;17437;47.188;8.896;2023-02-28T14:01:45;4.30;99.90
30678;DHT22;17437;47.188;8.896;2023-02-28T14:04:44;4.30;99.90
30678;DHT22;17437;47.188;8.896;2023-02-28T14:07:22;4.30;99.90
30678;DHT22;17437;47.188;8.896;2023-02-28T14:10:00;4.30;99.90
30678;DHT22;17437;47.188;8.896;2023-02-28T14:12:55;4.30;99.90
30678;DHT22;17437;47.188;8.896;2023-02-28T14:15:46;4.20;99.90
30678;DHT22;17437;47.188;8.896;2023-02-28T14:18:25;4.30;99.90
30678;DHT22;17437;47.188;8.896;2023-02-28T14:21:09;4.20;99.90
30678;DHT22;17437;47.188;8.896;2023-02-28T14:24:01;4.20;99.90
30678;DHT22;17437;47.188;8.896;2023-02-28T14:32:49;4.20;99.90
30678;DHT22;17437;47.188;8.896;2023-02-28T14:35:46;4.20;99.90
30678;DHT22;17437;47.188;8.896;2023-02-28T14:38:27;4.20;99.90
30678;DHT22;17437;47.188;8.896;2023-02-28T14:41:03;4.10;99.90
30678;DHT22;17437;47.188;8.896;2023-02-28T14:43:36;4.00;99.90
30678;DHT22;17437;47.188;8.896;2023-02-28T14:46:07;4.00;99.90
30678;DHT22;17437;47.188;8.896;2023-02-28T14:48:40;4.00;99.90
30678;DHT22;17437;47.188;8.896;2023-02-28T14:51:17;4.00;99.90
30678;DHT22;17437;47.188;8.896;2023-02-28T14:53:48;4.00;99.90
30678;DHT22;17437;47.188;8.896;2023-02-28T14:56:26;3.90;99.90
30678;DHT22;17437;47.188;8.896;2023-02-28T14:59:00;3.80;99.90
30678;DHT22;17437;47.188;8.896;2023-02-28T15:01:31;3.70;99.90
30678;DHT22;17437;47.188;8.896;2023-02-28T15:04:05;3.70;99.90
30678;DHT22;17437;47.188;8.896;2023-02-28T15:06:37;3.70;99.90
30678;DHT22;17437;47.188;8.896;2023-02-28T15:09:11;3.70;99.90
30678;DHT22;17437;47.188;8.896;2023-02-28T15:11:45;3.60;99.90
30678;DHT22;17437;47.188;8.896;2023-02-28T15:14:20;3.60;99.90
30678;DHT22;17437;47.188;8.896;2023-02-28T15:16:56;3.50;99.90
30678;DHT22;17437;47.188;8.896;2023-02-28T15:19:30;3.40;99.90
30678;DHT22;17437;47.188;8.896;2023-02-28T15:22:04;3.40;99.90
30678;DHT22;17437;47.188;8.896;2023-02-28T15:24:39;3.30;99.90
30678;DHT22;17437;47.188;8.896;2023-02-28T15:27:15;3.20;99.90
30678;DHT22;17437;47.188;8.896;2023-02-28T15:29:49;3.20;99.90
30678;DHT22;17437;47.188;8.896;2023-02-28T15:32:26;3.10;99.90
30678;DHT22;17437;47.188;8.896;2023-02-28T15:34:59;3.10;99.90
30678;DHT22;17437;47.188;8.896;2023-02-28T15:37:45;3.00;99.90
30678;DHT22;17437;47.188;8.896;2023-02-28T15:40:17;2.90;99.90
30678;DHT22;17437;47.188;8.896;2023-02-28T15:45:58;2.80;99.90
30678;DHT22;17437;47.188;8.896;2023-02-28T15:48:33;2.70;99.90
30678;DHT22;17437;47.188;8.896;2023-02-28T15:51:12;2.70;99.90
30678;DHT22;17437;47.188;8.896;2023-02-28T15:53:44;2.70;99.90
30678;DHT22;17437;47.188;8.896;2023-02-28T15:56:23;2.70;99.90
30678;DHT22;17437;47.188;8.896;2023-02-28T15:58:56;2.70;99.90
30678;DHT22;17437;47.188;8.896;2023-02-28T16:01:29;2.60;99.90
30678;DHT22;17437;47.188;8.896;2023-02-28T16:04:03;2.60;99.90
30678;DHT22;17437;47.188;8.896;2023-02-28T16:06:37;2.60;99.90
30678;DHT22;17437;47.188;8.896;2023-02-28T16:09:11;2.50;99.90
30678;DHT22;17437;47.188;8.896;2023-02-28T16:11:46;2.50;99.90
30678;DHT22;17437;47.188;8.896;2023-02-28T16:14:20;2.40;99.90
30678;DHT22;17437;47.188;8.896;2023-02-28T16:16:54;2.40;99.90
30678;DHT22;17437;47.188;8.896;2023-02-28T16:19:26;2.30;99.90
30678;DHT22;17437;47.188;8.896;2023-02-28T16:21:58;2.40;99.90
30678;DHT22;17437;47.188;8.896;2023-02-28T16:24:29;2.40;99.90
30678;DHT22;17437;47.188;8.896;2023-02-28T16:27:01;2.40;99.90
30678;DHT22;17437;47.188;8.896;2023-02-28T16:29:34;2.40;99.90
30678;DHT22;17437;47.188;8.896;2023-02-28T16:35:10;2.30;99.90
30678;DHT22;17437;47.188;8.896;2023-02-28T16:40:33;2.20;99.90
30678;DHT22;17437;47.188;8.896;2023-02-28T16:43:07;2.20;99.90
30678;DHT22;17437;47.188;8.896;2023-02-28T16:45:40;2.20;99.90
30678;DHT22;17437;47.188;8.896;2023-02-28T16:48:15;2.20;99.90
30678;DHT22;17437;47.188;8.896;2023-02-28T16:50:47;2.20;99.90
30678;DHT22;17437;47.188;8.896;2023-02-28T16:53:18;2.20;99.90
30678;DHT22;17437;47.188;8.896;2023-02-28T16:55:49;2.30;99.90
30678;DHT22;17437;47.188;8.896;2023-02-28T16:58:21;2.20;99.90
30678;DHT22;17437;47.188;8.896;2023-02-28T17:00:54;2.20;99.90
30678;DHT22;17437;47.188;8.896;2023-02-28T17:03:27;2.20;99.90
30678;DHT22;17437;47.188;8.896;2023-02-28T17:06:01;2.20;99.90
30678;DHT22;17437;47.188;8.896;2023-02-28T17:08:32;2.20;99.90
30678;DHT22;17437;47.188;8.896;2023-02-28T17:11:05;2.20;99.90
30678;DHT22;17437;47.188;8.896;2023-02-28T17:13:37;2.20;99.90
30678;DHT22;17437;47.188;8.896;2023-02-28T17:16:14;2.20;99.90
30678;DHT22;17437;47.188;8.896;2023-02-28T17:18:46;2.20;99.90
30678;DHT22;17437;47.188;8.896;2023-02-28T17:21:18;2.20;99.90
30678;DHT22;17437;47.188;8.896;2023-02-28T17:23:49;2.20;99.90